Mountain View Mountain View Mountain View Mountain View


Uccle  Uccle


Leuven  Leuven


Thunder radar more information blitzortung!


Rain radar more information rain snow radar


Visitez nos sites météorologiques autres:

Template documentation
and downloads

And another site



Rapports METAR proximité

   
EBAW - Antwerp
Mise à jour: 23-08-2017 05:50
Claires  
Claires  
   Vent: Est 5.6 km/h
Vent: Est 5.6 km/h
Température: 14°C
Point de rosée: 11°C
Humidité: 82%
Baromètre: 1015 hPa
visibilité: More than 10 km
Détails des nuages: Claires
EBAW 230350Z AUTO 10003KT CAVOK 14/11 Q1015
EBLG - Liège
Mise à jour: 23-08-2017 05:50
Claires  
Claires  
   Vent: SSE 13 km/h
Vent: SSE 13 km/h
Température: 18°C
Point de rosée: 11°C
Humidité: 64%
Baromètre: 1016 hPa
visibilité: More than 10 km
Détails des nuages: Claires
EBLG 230350Z 15007KT CAVOK 18/11 Q1016 NOSIG
EBCV - Mons/Bergen
Mise à jour: 23-08-2017 05:55
Peu de nuages  
Peu de nuages  
   Vent: varie 1.9 km/h
Vent: varie 1.9 km/h
Température: 14°C
Point de rosée: 12°C
Humidité: 88%
Baromètre: 1015 hPa
Nuageux: Peu de nuages
visibilité: More than 10 km
Détails des nuages: Peu de nuages 14000 ft
EBCV 230355Z AUTO VRB01KT 9999 FEW140/// 14/12 Q1015 BLU
EHBK - Maastricht
Mise à jour: 23-08-2017 05:55
Partiellement nuageux  
Partiellement nuageux  
   Vent: Est 9.3 km/h
Vent: Est 9.3 km/h
Température: 14°C
Point de rosée: 12°C
Humidité: 88%
Baromètre: 1016 hPa
Nuageux: Partiellement nuageux
visibilité: More than 10 km
Détails des nuages: Partiellement nuageux
EHBK 230355Z AUTO 10005KT 9999 NSC 14/12 Q1016 NOSIG
ELLX - Luxemburg
Mise à jour: 23-08-2017 05:50
Claires  
Claires  
   Vent: NE 11.1 km/h
Vent: NE 11.1 km/h
Température: 16°C
Point de rosée: 11°C
Humidité: 72%
Baromètre: 1017 hPa
visibilité: More than 10 km
Détails des nuages: Claires
ELLX 230350Z 05006KT CAVOK 16/11 Q1017 NOSIG
EBOS - Oostende
Mise à jour: 23-08-2017 05:50
Claires  
Claires  
   Vent: Est 7.4 km/h
Vent: Est 7.4 km/h
Température: 15°C
Point de rosée: 12°C
Humidité: 82%
Baromètre: 1015 hPa
visibilité: More than 10 km
Détails des nuages: Claires
EBOS 230350Z 10004KT CAVOK 15/12 Q1015 NOSIG

Script développé par  Saratoga-weather.org Adapté pour le modèle par  Weerstation Leuven

Vous trouverez notre info météo Également à:

WeatherCloud

Weather Underground

AWEKAS

Citizen Weather Observer Program (CWOP)

Équipement que nous utilisons:

Station de Météo
Davis VP2

Programme Météo
Meteobridge

Provider
Webcreating

Davis VP2

Meteobridge

Webcreating

Mountain View Mountain View Mountain View Mountain View